createdAt,value
2023-12-09T00:00:07.106Z,86.31
2023-12-09T00:02:38.512Z,86.84
2023-12-09T00:05:30.397Z,86.96
2023-12-09T00:07:57.094Z,87.22
2023-12-09T00:10:23.769Z,87.82
2023-12-09T00:12:50.426Z,87.84
2023-12-09T00:15:17.979Z,87.67
2023-12-09T00:17:44.740Z,87.51
2023-12-09T00:20:12.068Z,88.01
2023-12-09T00:22:39.609Z,88.03
2023-12-09T00:25:07.752Z,88.20
2023-12-09T00:27:35.618Z,87.93
2023-12-09T00:30:02.305Z,87.93
2023-12-09T00:32:29.244Z,87.73
2023-12-09T00:34:57.046Z,87.56
2023-12-09T00:37:23.685Z,88.37
2023-12-09T00:39:50.324Z,87.77
2023-12-09T00:42:17.079Z,87.92
2023-12-09T00:44:43.779Z,88.24
2023-12-09T00:47:10.657Z,88.24
2023-12-09T00:49:37.491Z,87.66
2023-12-09T00:52:04.508Z,87.38
2023-12-09T00:54:31.382Z,88.37
2023-12-09T00:56:58.090Z,88.04
2023-12-09T00:59:24.774Z,88.27
2023-12-09T01:01:51.594Z,87.27
2023-12-09T01:04:18.388Z,88.17
2023-12-09T01:06:45.093Z,88.55
2023-12-09T01:09:11.827Z,87.69
2023-12-09T01:11:38.494Z,87.25
2023-12-09T01:14:05.873Z,87.44
2023-12-09T01:16:32.656Z,88.17
2023-12-09T01:18:59.511Z,87.86
2023-12-09T01:21:26.236Z,87.69
2023-12-09T01:23:52.939Z,87.53
2023-12-09T01:26:19.566Z,88.12
2023-12-09T01:28:46.244Z,88.04
2023-12-09T01:31:12.830Z,87.72
2023-12-09T01:33:39.745Z,87.64
2023-12-09T01:36:06.705Z,87.69
2023-12-09T01:38:33.448Z,87.36
2023-12-09T01:41:00.048Z,87.82
2023-12-09T01:43:26.666Z,87.17
2023-12-09T01:46:05.317Z,87.05
2023-12-09T01:48:32.884Z,86.78
2023-12-09T01:51:01.973Z,87.49
2023-12-09T01:53:30.565Z,87.53
2023-12-09T01:56:00.483Z,87.26
2023-12-09T01:58:27.692Z,86.62
2023-12-09T02:00:55.291Z,87.55
2023-12-09T02:03:22.357Z,86.61
2023-12-09T02:05:48.987Z,86.54
2023-12-09T02:08:16.155Z,87.21
2023-12-09T02:10:43.200Z,86.31
2023-12-09T02:13:21.608Z,87.56
2023-12-09T02:16:01.683Z,86.70
2023-12-09T02:18:30.051Z,87.22
2023-12-09T02:20:57.016Z,86.70
2023-12-09T02:23:23.634Z,86.88
2023-12-09T02:25:54.218Z,87.29
2023-12-09T02:28:29.252Z,86.53
2023-12-09T02:31:14.601Z,86.32
2023-12-09T02:33:44.593Z,87.53
2023-12-09T02:36:13.666Z,85.92
2023-12-09T02:38:42.159Z,86.37
2023-12-09T02:41:09.638Z,86.52
2023-12-09T02:43:37.325Z,86.39
2023-12-09T02:46:04.327Z,86.75
2023-12-09T02:48:31.035Z,85.92
2023-12-09T02:50:57.728Z,86.36
2023-12-09T02:53:24.308Z,86.07
2023-12-09T02:55:51.012Z,85.76
2023-12-09T02:58:17.649Z,86.23
2023-12-09T03:00:44.415Z,85.75
2023-12-09T03:03:11.292Z,86.35
2023-12-09T03:05:38.035Z,85.97
2023-12-09T03:08:04.863Z,86.03
2023-12-09T03:10:31.596Z,86.24
2023-12-09T03:12:59.177Z,85.77
2023-12-09T03:15:25.823Z,85.56
2023-12-09T03:17:52.745Z,86.24
2023-12-09T03:20:19.661Z,85.42
2023-12-09T03:22:46.260Z,86.10
2023-12-09T03:25:12.893Z,85.57
2023-12-09T03:27:39.595Z,85.82
2023-12-09T03:30:07.518Z,85.99
2023-12-09T03:32:34.244Z,86.24
2023-12-09T03:35:00.906Z,85.91
2023-12-09T03:37:27.844Z,85.92
2023-12-09T03:39:54.462Z,86.18
2023-12-09T03:42:21.098Z,86.08
2023-12-09T03:44:47.828Z,85.63
2023-12-09T03:47:21.868Z,86.12
2023-12-09T03:49:52.791Z,85.54
2023-12-09T03:52:19.500Z,85.91
2023-12-09T03:54:46.258Z,85.72
2023-12-09T03:57:14.594Z,85.01
2023-12-09T03:59:41.823Z,85.56
2023-12-09T04:02:08.540Z,85.10
2023-12-09T04:04:39.552Z,85.49
2023-12-09T04:07:06.159Z,85.69
2023-12-09T04:09:32.882Z,85.69
2023-12-09T04:11:59.698Z,86.22
2023-12-09T04:14:27.373Z,86.07
2023-12-09T04:16:54.041Z,85.32
2023-12-09T04:19:20.804Z,86.00
2023-12-09T04:21:47.622Z,85.67
2023-12-09T04:24:14.265Z,85.36
2023-12-09T04:26:41.058Z,85.15
2023-12-09T04:29:08.039Z,85.01
2023-12-09T04:31:34.926Z,85.31
2023-12-09T04:34:01.725Z,85.31
2023-12-09T04:36:28.454Z,85.68
2023-12-09T04:38:55.104Z,85.43
2023-12-09T04:41:21.745Z,85.47
2023-12-09T04:43:48.353Z,85.83
2023-12-09T04:46:15.126Z,85.84
2023-12-09T04:48:42.085Z,85.62
2023-12-09T04:51:08.848Z,85.25
2023-12-09T04:53:37.175Z,85.68
2023-12-09T04:56:06.854Z,86.23
2023-12-09T04:58:33.409Z,86.09
2023-12-09T05:01:00.138Z,85.38
2023-12-09T05:03:26.855Z,86.08
2023-12-09T05:05:53.738Z,85.91
2023-12-09T05:08:20.367Z,86.13
2023-12-09T05:10:47.372Z,85.79
2023-12-09T05:13:13.994Z,85.70
2023-12-09T05:15:40.677Z,85.88
2023-12-09T05:18:07.456Z,85.99
2023-12-09T05:20:34.516Z,86.29
2023-12-09T05:23:01.122Z,85.46
2023-12-09T05:25:27.781Z,85.41
2023-12-09T05:27:54.721Z,86.01
2023-12-09T05:30:21.488Z,85.47
2023-12-09T05:32:48.237Z,85.81
2023-12-09T05:35:14.901Z,85.87
2023-12-09T05:37:41.565Z,85.65
2023-12-09T05:40:09.158Z,85.67
2023-12-09T05:42:35.795Z,85.78
2023-12-09T05:45:02.432Z,85.63
2023-12-09T05:47:29.085Z,86.01
2023-12-09T05:49:55.724Z,85.56
2023-12-09T05:52:22.352Z,85.42
2023-12-09T05:54:49.037Z,85.77
2023-12-09T05:57:15.707Z,85.47
2023-12-09T05:59:42.292Z,85.58
2023-12-09T06:02:08.946Z,85.82
2023-12-09T06:04:35.528Z,85.61
2023-12-09T06:07:02.327Z,85.92
2023-12-09T06:09:28.984Z,85.45
2023-12-09T06:11:55.687Z,86.12
2023-12-09T06:14:22.588Z,85.43
2023-12-09T06:16:49.344Z,85.50
2023-12-09T06:19:15.950Z,85.73
2023-12-09T06:21:43.036Z,85.32
2023-12-09T06:24:09.697Z,85.50
2023-12-09T06:26:43.622Z,85.87
2023-12-09T06:29:12.945Z,85.65
2023-12-09T06:31:39.505Z,85.71
2023-12-09T06:34:06.592Z,85.85
2023-12-09T06:36:33.362Z,86.07
2023-12-09T06:39:00.727Z,85.86
2023-12-09T06:41:28.159Z,85.75
2023-12-09T06:43:54.708Z,86.39
2023-12-09T06:46:21.340Z,86.70
2023-12-09T06:48:48.160Z,86.83
2023-12-09T06:51:16.080Z,87.47
2023-12-09T06:53:43.448Z,87.15
2023-12-09T06:56:19.959Z,87.63
2023-12-09T06:58:46.673Z,87.54
2023-12-09T07:01:22.333Z,87.56
2023-12-09T07:03:50.094Z,87.45
2023-12-09T07:06:18.473Z,87.71
2023-12-09T07:08:45.841Z,87.97
2023-12-09T07:11:12.763Z,88.15
2023-12-09T07:13:41.949Z,87.95
2023-12-09T07:16:10.963Z,87.35
2023-12-09T07:18:44.603Z,87.84
2023-12-09T07:21:11.452Z,87.29
2023-12-09T07:23:38.105Z,87.44
2023-12-09T07:26:29.989Z,86.92
2023-12-09T07:28:57.026Z,86.91
2023-12-09T07:31:25.488Z,87.02
2023-12-09T07:33:52.234Z,86.81
2023-12-09T07:36:19.001Z,87.33
2023-12-09T07:38:45.616Z,87.32
2023-12-09T07:41:12.275Z,87.05
2023-12-09T07:43:42.178Z,86.63
2023-12-09T07:46:08.863Z,86.53
2023-12-09T07:48:37.660Z,86.40
2023-12-09T07:51:04.727Z,86.67
2023-12-09T07:53:34.747Z,86.71
2023-12-09T07:56:26.790Z,86.19
2023-12-09T07:59:18.832Z,86.35
2023-12-09T08:01:45.793Z,85.76
2023-12-09T08:04:12.973Z,85.38
2023-12-09T08:09:37.246Z,84.02
2023-12-09T08:12:04.537Z,83.87
2023-12-09T08:14:31.669Z,83.75
2023-12-09T08:16:58.335Z,83.37
2023-12-09T08:19:25.418Z,83.15
2023-12-09T08:24:42.798Z,82.66
2023-12-09T08:27:36.810Z,83.01
2023-12-09T08:30:28.684Z,83.23
2023-12-09T08:32:59.969Z,83.04
2023-12-09T08:35:26.784Z,82.94
2023-12-09T08:37:55.269Z,82.59
2023-12-09T08:40:21.906Z,82.48
2023-12-09T08:42:48.703Z,82.69
2023-12-09T08:45:19.013Z,82.00
2023-12-09T08:47:46.231Z,81.96
2023-12-09T08:50:22.687Z,81.91
2023-12-09T08:52:55.315Z,82.16
2023-12-09T08:55:22.797Z,82.08
2023-12-09T08:57:50.444Z,82.04
2023-12-09T09:00:21.595Z,82.43
2023-12-09T09:02:49.129Z,82.18
2023-12-09T09:05:16.142Z,82.26
2023-12-09T09:07:46.059Z,82.08
2023-12-09T09:10:15.798Z,82.33
2023-12-09T09:12:44.794Z,81.81
2023-12-09T09:15:11.780Z,82.37
2023-12-09T09:17:40.728Z,82.25
2023-12-09T09:20:07.966Z,82.11
2023-12-09T09:22:35.234Z,82.33
2023-12-09T09:25:02.331Z,82.43
2023-12-09T09:27:29.488Z,81.52
2023-12-09T09:29:56.855Z,81.06
2023-12-09T09:32:24.663Z,80.65
2023-12-09T09:34:51.575Z,80.72
2023-12-09T09:37:18.319Z,80.71
2023-12-09T09:39:48.413Z,80.35
2023-12-09T09:42:33.740Z,80.41
2023-12-09T09:45:20.450Z,79.18
2023-12-09T09:47:49.748Z,79.51
2023-12-09T09:50:25.208Z,79.57
2023-12-09T09:52:53.786Z,78.76
2023-12-09T09:55:23.517Z,79.11
2023-12-09T09:57:50.467Z,79.04
2023-12-09T10:00:21.103Z,78.85
2023-12-09T10:02:50.942Z,78.23
2023-12-09T10:05:19.017Z,77.60
2023-12-09T10:07:48.560Z,77.01
2023-12-09T10:10:17.702Z,77.19
2023-12-09T10:12:45.349Z,76.39
2023-12-09T10:15:13.444Z,77.22
2023-12-09T10:17:40.780Z,77.20
2023-12-09T10:20:09.794Z,77.32
2023-12-09T10:22:37.739Z,77.47
2023-12-09T10:25:04.891Z,77.54
2023-12-09T10:27:31.571Z,77.07
2023-12-09T10:29:58.841Z,76.43
2023-12-09T10:32:29.547Z,76.40
2023-12-09T10:34:56.802Z,76.52
2023-12-09T10:37:24.100Z,75.80
2023-12-09T10:39:52.310Z,75.05
2023-12-09T10:42:26.811Z,75.84
2023-12-09T10:44:53.996Z,75.07
2023-12-09T10:47:20.882Z,72.83
2023-12-09T10:49:47.607Z,73.81
2023-12-09T10:52:14.319Z,73.21
2023-12-09T10:54:41.070Z,72.83
2023-12-09T10:57:08.796Z,72.40
2023-12-09T10:59:35.700Z,72.18
2023-12-09T11:02:02.666Z,71.97
2023-12-09T11:04:30.208Z,73.85
2023-12-09T11:07:03.219Z,74.12
2023-12-09T11:09:31.252Z,73.75
2023-12-09T11:11:59.282Z,74.16
2023-12-09T11:14:29.420Z,75.14
2023-12-09T11:16:58.528Z,74.67
